Silsoe, United Kingdom
Current Conditions -  °F | °C
As of 2:50 PM on Wednesday 26 Nov 2014 (Local Time) from EGTC Reporting Station
Haze Haze  
Wind Chill: 46°   Ceiling: 300
Heat Index: 46°   Visibility: 1.5mi
Dew Point: 46°   Wind: 2mph
Humidity: 100%   Direction: 210°SSW
Pressure: 29.8"   Gusts: NA
Location:  52.01°N, 0.42°W
Report Text: EGTC 261450Z 21002KT 2500 BR BKN003 08/08 Q1009
Loading
Personal Weather Stations






























Interactive Weather Map New forecast layout! Learn more

10-Day Weather Forecast

Advertisements
Track Severe Weather on mobile